Latest Weather Observations for Charleville

IDQ60801

Issued at 10:05 am EST Monday 22 September 2014 (issued every 30 minutes, with the page automatically refreshed every 10 minutes)

About weather observations | Map of weather stations | Latest weather observations for QLD | Other Formats
Station Details ID: 044021 Name: CHARLEVILLE AERO Lat: -26.41 Lon: 146.26 Height: 301.6 m
Data from the previous 72 hours. | See also: Recent months at Charleville
Date/Time
EST
Temp
°C
App
Temp
°C
Dew
Point
Rel
Hum
%
Delta-T
°C
Wind Press
QNH
hPa
Press
MSL
hPa
Rain
since 9 am
mm
Dir
 
Spd
km/h
Gust
km/h
Spd
kts
Gust
kts
22/09:30am 18.7 14.7 9.1 53 5.1 E 20 28 11 15 1023.9 - 0.0
22/09:00am 17.4 13.4 9.1 58 4.4 E 20 30 11 16 1023.9 1023.5 0.0
22/08:30am 17.0 12.6 9.1 59 4.2 E 22 32 12 17 1023.7 - 0.0
22/08:00am 16.1 12.1 8.9 62 3.8 E 20 32 11 17 1023.5 - 0.0
22/07:30am 15.6 12.6 9.1 65 3.4 E 15 19 8 10 1023.2 - 0.0
22/07:00am 15.1 12.5 9.4 69 3.0 ESE 13 15 7 8 1022.8 - 0.0
22/06:30am 14.4 12.3 9.7 73 2.5 ESE 11 15 6 8 1022.3 - 0.0
22/06:00am 14.2 12.5 9.9 75 2.3 SSE 9 13 5 7 1022.0 1021.5 0.0
22/05:30am 14.1 12.0 9.6 74 2.3 E 11 13 6 7 1021.7 - 0.0
22/05:00am 13.9 11.7 9.5 75 2.3 ESE 11 13 6 7 1021.3 - 0.0
22/04:30am 14.0 11.8 9.2 73 2.5 ESE 11 13 6 7 1021.0 - 0.0
22/04:00am 13.8 11.4 8.8 72 2.6 E 11 15 6 8 1021.0 - 0.0
22/03:30am 13.7 11.7 8.7 72 2.6 ESE 9 11 5 6 1021.4 - 0.0
22/03:00am 13.9 11.9 8.7 71 2.7 E 9 11 5 6 1021.2 1020.8 0.0
22/02:30am 14.1 12.5 8.9 71 2.7 SE 7 9 4 5 1021.9 - 0.0
22/02:00am 14.4 12.0 8.5 67 3.0 E 11 13 6 7 1021.9 - 0.0
22/01:30am 14.6 12.2 8.5 67 3.1 E 11 13 6 7 1022.2 - 0.0
22/01:00am 14.8 12.8 8.5 66 3.2 ESE 9 11 5 6 1022.3 - 0.0
22/12:30am 15.0 12.6 8.6 65 3.3 E 11 17 6 9 1022.7 - 0.0
22/12:00am 15.1 13.2 8.9 66 3.2 E 9 17 5 9 1023.1 1022.6 0.0
 
Date/Time
EST
Temp
°C
App
Temp
°C
Dew
Point
Rel
Hum
%
Delta-T
°C
Wind Press
QNH
hPa
Press
MSL
hPa
Rain
since 9 am
mm
Dir
 
Spd
km/h
Gust
km/h
Spd
kts
Gust
kts
21/11:30pm 15.4 12.4 9.1 66 3.3 E 15 19 8 10 1022.8 - 0.0
21/11:00pm 15.7 12.7 9.3 65 3.4 E 15 20 8 11 1022.8 - 0.0
21/10:30pm 15.9 13.1 8.6 62 3.8 ESE 13 19 7 10 1022.6 - 0.0
21/10:00pm 15.8 13.1 8.8 63 3.6 ESE 13 19 7 10 1022.8 - 0.0
21/09:30pm 15.9 10.0 8.9 63 3.6 ESE 30 41 16 22 1023.0 - 0.0
21/09:00pm 16.2 12.4 8.9 62 3.8 E 19 33 10 18 1023.3 1022.8 0.0
21/08:34pm 16.2 9.8 8.7 61 3.9 E 32 50 17 27 1022.8 - 0.0
21/08:30pm 16.3 9.4 8.8 61 3.9 E 35 50 19 27 1022.7 - 0.0
21/08:08pm 16.8 10.5 8.9 59 4.1 E 32 52 17 28 1022.3 - 0.0
21/08:00pm 17.0 11.4 8.9 59 4.2 E 28 35 15 19 1022.2 - 0.0
21/07:30pm 17.7 11.4 9.8 60 4.2 ESE 33 44 18 24 1021.8 - 0.0
21/07:05pm 18.4 11.9 10.3 59 4.4 ESE 35 54 19 29 1021.0 - 0.0
21/07:00pm 18.4 11.5 10.3 59 4.4 ESE 37 54 20 29 1020.6 - 0.0
21/06:30pm 19.4 13.6 10.8 57 4.7 ESE 32 43 17 23 1020.4 - 0.0
21/06:00pm 21.2 14.8 9.5 47 6.3 SE 33 46 18 25 1019.4 1018.9 0.0
21/05:55pm 21.9 14.2 7.3 39 7.6 ESE 37 46 20 25 1019.3 - 0.0
21/05:30pm 23.2 16.6 2.0 25 10.1 SSE 26 33 14 18 1018.6 - 0.0
21/05:00pm 23.8 18.2 1.1 22 10.7 SSE 20 32 11 17 1018.2 - 0.0
21/04:30pm 24.3 18.7 1.3 22 10.9 SSE 20 30 11 16 1018.3 - 0.0
21/04:00pm 24.2 19.1 0.5 21 11.1 SE 17 33 9 18 1017.9 - 0.0
21/03:30pm 24.8 19.1 0.3 20 11.5 ESE 20 28 11 15 1018.0 - 0.0
21/03:00pm 23.8 19.4 0.3 21 10.9 E 13 20 7 11 1018.6 1018.1 0.0
21/02:30pm 24.5 21.0 1.2 21 11.1 SE 9 19 5 10 1018.8 - 0.0
21/02:00pm 24.4 20.2 1.8 22 10.9 E 13 17 7 9 1019.1 - 0.0
21/01:30pm 23.7 18.5 0.3 21 10.9 SSE 17 22 9 12 1019.4 - 0.0
21/01:00pm 24.1 18.5 -0.1 20 11.2 SE 19 32 10 17 1019.8 - 0.0
21/12:30pm 24.1 19.8 1.1 22 10.9 E 13 24 7 13 1020.2 - 0.0
21/12:00pm 23.4 19.0 0.2 21 10.7 E 13 20 7 11 1020.8 1020.4 0.0
21/11:30am 22.7 18.7 0.5 23 10.3 E 11 26 6 14 1021.1 - 0.0
21/11:00am 22.2 15.8 -1.7 20 10.6 ESE 22 30 12 16 1021.7 - 0.0
21/10:30am 21.9 15.9 -1.5 21 10.4 SE 20 32 11 17 1022.0 - 0.0
21/10:00am 22.0 16.3 -0.4 22 10.1 ESE 19 26 10 14 1022.3 - 0.0
21/09:30am 21.5 15.5 -1.4 21 10.1 ESE 20 30 11 16 1022.6 - 0.0
21/09:00am 20.8 14.9 -0.8 23 9.6 ESE 20 28 11 15 1022.4 1021.9 0.0
21/08:30am 20.3 14.6 -0.5 24 9.3 SSE 19 26 10 14 1021.9 - 0.0
21/08:00am 18.7 13.8 -0.3 27 8.4 ESE 15 22 8 12 1021.8 - 0.0
21/07:30am 17.9 13.3 -1.0 27 8.2 ESE 13 17 7 9 1021.1 - 0.0
21/07:00am 16.4 11.6 -2.8 26 7.9 SE 13 15 7 8 1021.0 - 0.0
21/06:30am 14.9 10.6 -1.8 31 6.9 SE 11 13 6 7 1020.7 - 0.0
21/06:00am 15.6 10.4 -3.0 27 7.5 SE 15 19 8 10 1020.6 1020.1 0.0
21/05:30am 15.5 10.3 -2.9 28 7.5 SSE 15 20 8 11 1020.8 - 0.0
21/05:00am 15.3 9.4 -1.9 30 7.1 S 19 24 10 13 1020.6 - 0.0
21/04:30am 15.6 10.2 -4.4 25 7.9 SSW 15 19 8 10 1020.2 - 0.0
21/04:00am 15.7 11.1 -4.3 25 7.9 S 11 13 6 7 1019.6 - 0.0
21/03:30am 15.9 11.7 -4.3 24 8.0 SSE 9 11 5 6 1019.5 - 0.0
21/03:00am 16.0 11.8 -3.8 25 7.9 S 9 11 5 6 1019.6 1019.1 0.0
21/02:30am 16.3 12.1 -4.2 24 8.2 SSE 9 11 5 6 1019.7 - 0.0
21/02:00am 16.7 11.6 -4.8 22 8.5 SE 13 15 7 8 1019.9 - 0.0
21/01:30am 16.5 11.3 -6.2 20 8.7 SSE 13 17 7 9 1020.0 - 0.0
21/01:00am 16.8 12.5 -4.4 23 8.4 ESE 9 11 5 6 1020.8 - 0.0
21/12:30am 18.1 14.5 -4.0 22 9.0 S 6 9 3 5 1021.3 - 0.0
21/12:00am 18.5 12.8 -7.6 16 9.9 SE 15 20 8 11 1021.5 1021.1 0.0
 
Date/Time
EST
Temp
°C
App
Temp
°C
Dew
Point
Rel
Hum
%
Delta-T
°C
Wind Press
QNH
hPa
Press
MSL
hPa
Rain
since 9 am
mm
Dir
 
Spd
km/h
Gust
km/h
Spd
kts
Gust
kts
20/11:30pm 17.1 9.9 -5.5 21 8.8 S 24 32 13 17 1021.7 - 0.0
20/11:00pm 16.7 14.5 -1.8 28 7.8 CALM 0 0 0 0 1022.2 - 0.0
20/10:30pm 17.5 14.4 -2.9 24 8.4 NE 4 7 2 4 1022.1 - 0.0
20/10:00pm 18.0 13.7 -4.4 21 9.0 S 9 11 5 6 1022.2 - 0.0
20/09:30pm 18.6 13.1 -5.4 19 9.5 SE 15 22 8 12 1022.1 - 0.0
20/09:00pm 18.4 12.9 -5.3 19 9.4 S 15 24 8 13 1021.9 1021.4 0.0
20/08:30pm 18.5 13.5 -4.3 21 9.3 SSE 13 17 7 9 1021.8 - 0.0
20/08:00pm 18.6 13.2 -4.3 21 9.3 S 15 19 8 10 1021.3 - 0.0
20/07:30pm 18.8 14.6 -4.1 21 9.4 S 9 11 5 6 1021.5 - 0.0
20/07:00pm 19.3 14.4 -3.6 21 9.5 S 13 15 7 8 1021.1 - 0.0
20/06:30pm 19.7 15.1 -4.3 19 9.9 SSE 11 13 6 7 1020.2 - 0.0
20/06:00pm 20.8 15.2 -6.9 15 10.9 SSE 15 19 8 10 1019.6 1019.1 0.0
20/05:30pm 21.5 14.4 -8.3 13 11.5 S 22 28 12 15 1018.8 - 0.0
20/05:00pm 22.7 14.8 -9.3 11 12.3 S 26 33 14 18 1018.4 - 0.0
20/04:30pm 23.2 15.9 -6.4 13 12.1 SSE 24 32 13 17 1018.3 - 0.0
20/04:00pm 23.0 16.6 -5.1 15 11.7 SSE 20 33 11 18 1018.5 - 0.0
20/03:30pm 23.4 16.9 -5.5 14 12.0 S 20 30 11 16 1018.5 - 0.0
20/03:00pm 23.4 17.3 -3.8 16 11.6 SSE 19 30 10 16 1018.5 1018.0 0.0
20/02:30pm 24.4 18.5 -2.1 17 11.8 SE 19 28 10 15 1018.7 - 0.0
20/02:00pm 23.2 17.2 -3.1 17 11.4 SSE 19 26 10 14 1019.1 - 0.0
20/01:30pm 22.9 18.0 -3.6 17 11.4 ESE 13 24 7 13 1019.4 - 0.0
20/01:00pm 22.9 15.6 -3.2 17 11.3 SE 26 33 14 18 1019.7 - 0.0
20/12:30pm 22.1 15.4 -3.9 17 11.0 SSE 22 30 12 16 1020.2 - 0.0
20/12:00pm 22.3 15.4 -2.5 19 10.8 SSE 24 28 13 15 1020.8 1020.4 0.0
20/11:30am 22.1 16.5 -2.7 19 10.7 E 17 28 9 15 1021.2 - 0.0
20/11:00am 21.1 14.9 -2.9 20 10.3 E 20 28 11 15 1021.4 - 0.0
20/10:30am 20.6 14.4 -2.8 20 10.0 ESE 20 32 11 17 1021.9 - 0.0
20/10:00am 19.4 12.9 -2.8 22 9.4 ESE 22 28 12 15 1022.2 - 0.0
20/09:30am 19.0 12.1 -2.4 23 9.1 ESE 24 33 13 18 1022.7 - 0.0
20/09:00am 17.9 11.0 -2.8 24 8.6 SE 24 32 13 17 1022.8 1022.3 0.0
20/08:30am 17.1 9.8 -2.6 26 8.2 ESE 26 33 14 18 1022.8 - 0.0
20/08:00am 15.4 8.4 -3.1 28 7.5 ESE 24 33 13 18 1022.6 - 0.0
20/07:30am 13.5 9.4 0.1 40 5.7 SE 11 15 6 8 1022.5 - 0.0
20/07:00am 10.6 6.9 0.2 48 4.3 SSE 9 9 5 5 1022.2 - 0.0
20/06:30am 8.5 5.2 0.1 55 3.4 SSE 7 9 4 5 1022.0 - 0.0
20/06:00am 7.8 4.7 0.4 59 3.0 SSE 6 7 3 4 1021.5 1021.1 0.0
20/05:30am 8.8 5.1 -0.1 53 3.6 SSE 9 9 5 5 1021.1 - 0.0
20/05:00am 9.5 5.7 -0.5 49 4.0 SSE 9 9 5 5 1020.7 - 0.0
20/04:30am 9.7 5.9 -0.7 48 4.2 S 9 9 5 5 1020.2 - 0.0
20/04:00am 10.0 6.6 -0.5 48 4.2 SSE 7 9 4 5 1019.8 - 0.0
20/03:30am 10.7 6.9 -0.9 44 4.7 SSE 9 9 5 5 1019.8 - 0.0
20/03:00am 9.9 6.2 -0.3 49 4.1 S 9 9 5 5 1019.8 1019.3 0.0
20/02:30am 10.8 6.6 -0.6 45 4.6 S 11 11 6 6 1019.9 - 0.0
20/02:00am 11.8 8.0 -0.5 42 5.1 SSE 9 11 5 6 1020.2 - 0.0
20/01:30am 12.2 7.9 -1.4 39 5.5 SSE 11 13 6 7 1020.2 - 0.0
20/01:00am 12.6 8.0 -1.2 38 5.6 S 13 13 7 7 1020.3 - 0.0
20/12:30am 12.8 8.9 -1.3 37 5.8 S 9 11 5 6 1020.4 - 0.0
20/12:00am 13.1 8.8 -1.5 36 5.9 S 11 13 6 7 1020.5 1020.0 0.0
 
Date/Time
EST
Temp
°C
App
Temp
°C
Dew
Point
Rel
Hum
%
Delta-T
°C
Wind Press
QNH
hPa
Press
MSL
hPa
Rain
since 9 am
mm
Dir
 
Spd
km/h
Gust
km/h
Spd
kts
Gust
kts
19/11:30pm 13.7 9.8 -1.6 34 6.3 S 9 11 5 6 1020.6 - 0.0
19/11:00pm 14.4 10.5 -1.5 33 6.6 S 9 13 5 7 1020.4 - 0.0
19/10:30pm 15.1 10.7 -2.2 30 7.1 S 11 13 6 7 1020.4 - 0.0
19/10:00pm 15.4 11.5 -1.7 31 7.1 SSE 9 13 5 7 1020.2 - 0.0
19/09:30pm 15.3 11.0 -1.9 30 7.1 SSE 11 15 6 8 1020.0 - 0.0
19/09:00pm 17.5 13.8 -2.9 24 8.4 SSE 7 9 4 5 1019.8 1019.3 0.0
19/08:30pm 17.8 13.4 -2.7 24 8.5 S 11 13 6 7 1019.6 - 0.0
19/08:00pm 18.9 15.1 -1.0 26 8.7 S 9 13 5 7 1019.2 - 0.0
19/07:30pm 20.5 15.0 -5.2 17 10.4 S 15 22 8 12 1018.8 - 0.0
19/07:00pm 21.1 15.9 -5.7 16 10.8 S 13 22 7 12 1018.4 - 0.0
19/06:30pm 21.9 16.7 -5.9 15 11.3 S 13 17 7 9 1017.8 - 0.0
19/06:00pm 22.9 16.9 -7.0 13 12.0 S 17 24 9 13 1017.3 1016.8 0.0
19/05:30pm 24.2 18.9 -7.0 12 12.7 SSW 13 26 7 14 1017.1 - 0.0
19/05:00pm 24.7 18.0 -7.8 11 13.1 S 20 33 11 18 1016.8 - 0.0
19/04:30pm 25.5 19.0 -7.7 10 13.5 SSW 19 30 10 16 1016.7 - 0.0
19/04:00pm 25.5 19.4 -7.2 11 13.4 SSW 17 30 9 16 1016.6 - 0.0
19/03:30pm 25.6 19.5 -7.5 10 13.5 SW 17 26 9 14 1016.5 - 0.0
19/03:00pm 25.4 19.0 -6.4 12 13.2 WNW 19 30 10 16 1016.6 1016.1 0.0
19/02:30pm 25.9 19.5 -6.5 11 13.5 WSW 19 30 10 16 1016.8 - 0.0
19/02:00pm 25.6 19.1 -8.2 10 13.6 W 19 26 10 14 1017.0 - 0.0
19/01:30pm 25.6 18.8 -9.1 9 13.8 WSW 20 32 11 17 1017.3 - 0.0
19/01:00pm 25.3 19.0 -6.0 12 13.1 SSE 19 20 10 11 1017.8 - 0.0
19/12:30pm 24.4 20.1 -4.9 14 12.4 NNW 9 20 5 11 1018.5 - 0.0
19/12:00pm 24.1 19.3 -5.8 13 12.4 N 11 19 6 10 1019.1 1018.6 0.0
19/11:30am 23.9 19.4 -6.7 12 12.5 W 9 15 5 8 1019.7 - 0.0
19/11:00am 23.5 19.1 -2.7 17 11.5 NNW 11 17 6 9 1020.1 - 0.0
19/10:30am 22.7 18.3 -6.1 14 11.7 NE 9 17 5 9 1020.5 - 0.0

Other Formats:

Comma delimited format used in spreadsheet applications
http://www.bom.gov.au/fwo/IDQ60801/IDQ60801.94510.axf

JavaScript Object Notation format (JSON) in row-major order
http://www.bom.gov.au/fwo/IDQ60801/IDQ60801.94510.json